DIAP

Port Bouet Airport

Abidjan, Côte D’Ivoire
METAR DIAP 241100Z 20009KT 9999 SCT011 BKN040 27/24 Q1013 NOSIG
Observed Flight Rules
Sep-24 @ 11:00 UTC (40 minutes ago) Visual Flight Rules
Wind Visibility Clouds
200° at 9 knots 10,000+ meters
  • Scattered at 1,100' AGL
  • Broken at 4,000' AGL
Temperatures Readings
Current 27°C / 81°F
Dewpoint 24°C / 75°F
Humidity 84%
Altimeter 29.91" Hg
Pressure 1013 hPa
Elevation 8
METAR DIAP 241100Z 20009KT 9999 SCT011 BKN040 27/24 Q1013 NOSIG
Observed Flight Rules
Sep-24 @ 11:00 UTC
(40 minutes ago)
VFR
Wind Visibility
200° at 9 knots 10,000+ meters
Clouds
  • Scattered at 1,100' AGL
  • Broken at 4,000' AGL
Temperature Dewpoint
27°C / 81°F 24°C / 75°F
Humidity Altimeter Pressure
84% 29.91" Hg 1013 hPa